sensor_id;sensor_type;location;lat;lon;timestamp;temperature;humidity
26595;DHT22;14238;49.496;8.154;2023-03-23T00:00:04;13.90;99.90
26595;DHT22;14238;49.496;8.154;2023-03-23T00:02:34;13.80;99.90
26595;DHT22;14238;49.496;8.154;2023-03-23T00:05:02;13.70;99.90
26595;DHT22;14238;49.496;8.154;2023-03-23T00:07:29;13.70;99.90
26595;DHT22;14238;49.496;8.154;2023-03-23T00:09:55;13.60;99.90
26595;DHT22;14238;49.496;8.154;2023-03-23T00:12:22;13.60;99.90
26595;DHT22;14238;49.496;8.154;2023-03-23T00:14:57;13.50;99.90
26595;DHT22;14238;49.496;8.154;2023-03-23T00:17:22;13.40;99.90
26595;DHT22;14238;49.496;8.154;2023-03-23T00:19:48;13.50;99.90
26595;DHT22;14238;49.496;8.154;2023-03-23T00:22:16;13.50;99.90
26595;DHT22;14238;49.496;8.154;2023-03-23T00:24:46;13.50;99.90
26595;DHT22;14238;49.496;8.154;2023-03-23T00:27:12;13.70;99.90
26595;DHT22;14238;49.496;8.154;2023-03-23T00:29:40;13.70;99.90
26595;DHT22;14238;49.496;8.154;2023-03-23T00:32:06;13.60;99.90
26595;DHT22;14238;49.496;8.154;2023-03-23T00:34:32;13.50;99.90
26595;DHT22;14238;49.496;8.154;2023-03-23T00:36:59;13.70;99.90
26595;DHT22;14238;49.496;8.154;2023-03-23T00:39:27;13.80;99.90
26595;DHT22;14238;49.496;8.154;2023-03-23T00:41:53;13.90;99.90
26595;DHT22;14238;49.496;8.154;2023-03-23T00:44:29;14.10;99.90
26595;DHT22;14238;49.496;8.154;2023-03-23T00:46:55;14.10;99.90
26595;DHT22;14238;49.496;8.154;2023-03-23T00:49:23;14.00;99.90
26595;DHT22;14238;49.496;8.154;2023-03-23T00:51:52;14.00;99.90
26595;DHT22;14238;49.496;8.154;2023-03-23T00:54:18;14.10;99.90
26595;DHT22;14238;49.496;8.154;2023-03-23T00:56:44;14.20;99.90
26595;DHT22;14238;49.496;8.154;2023-03-23T00:59:10;14.20;99.90
26595;DHT22;14238;49.496;8.154;2023-03-23T01:01:36;14.30;99.90
26595;DHT22;14238;49.496;8.154;2023-03-23T01:04:02;14.20;99.90
26595;DHT22;14238;49.496;8.154;2023-03-23T01:06:33;14.30;99.90
26595;DHT22;14238;49.496;8.154;2023-03-23T01:09:01;14.20;99.90
26595;DHT22;14238;49.496;8.154;2023-03-23T01:11:28;14.30;99.90
26595;DHT22;14238;49.496;8.154;2023-03-23T01:13:54;14.20;99.90
26595;DHT22;14238;49.496;8.154;2023-03-23T01:16:20;14.20;99.90
26595;DHT22;14238;49.496;8.154;2023-03-23T01:18:46;14.30;99.90
26595;DHT22;14238;49.496;8.154;2023-03-23T01:21:14;14.30;99.90
26595;DHT22;14238;49.496;8.154;2023-03-23T01:23:40;14.20;99.90
26595;DHT22;14238;49.496;8.154;2023-03-23T01:26:12;14.30;99.90
26595;DHT22;14238;49.496;8.154;2023-03-23T01:28:38;14.30;99.90
26595;DHT22;14238;49.496;8.154;2023-03-23T01:31:06;14.20;99.90
26595;DHT22;14238;49.496;8.154;2023-03-23T01:33:33;14.30;99.90
26595;DHT22;14238;49.496;8.154;2023-03-23T01:36:03;14.30;99.90
26595;DHT22;14238;49.496;8.154;2023-03-23T01:38:29;14.40;99.90
26595;DHT22;14238;49.496;8.154;2023-03-23T01:40:55;14.30;99.90
26595;DHT22;14238;49.496;8.154;2023-03-23T01:43:20;14.40;99.90
26595;DHT22;14238;49.496;8.154;2023-03-23T01:45:46;14.40;99.90
26595;DHT22;14238;49.496;8.154;2023-03-23T01:48:35;14.40;99.90
26595;DHT22;14238;49.496;8.154;2023-03-23T01:51:06;14.50;99.90
26595;DHT22;14238;49.496;8.154;2023-03-23T01:53:38;14.50;99.90
26595;DHT22;14238;49.496;8.154;2023-03-23T01:56:04;14.40;99.90
26595;DHT22;14238;49.496;8.154;2023-03-23T01:58:33;14.30;99.90
26595;DHT22;14238;49.496;8.154;2023-03-23T02:01:03;14.40;99.90
26595;DHT22;14238;49.496;8.154;2023-03-23T02:03:29;14.30;99.90
26595;DHT22;14238;49.496;8.154;2023-03-23T02:05:57;14.10;99.90
26595;DHT22;14238;49.496;8.154;2023-03-23T02:08:29;14.10;99.90
26595;DHT22;14238;49.496;8.154;2023-03-23T02:10:57;14.20;99.90
26595;DHT22;14238;49.496;8.154;2023-03-23T02:13:23;14.20;99.90
26595;DHT22;14238;49.496;8.154;2023-03-23T02:21:36;14.20;99.90
26595;DHT22;14238;49.496;8.154;2023-03-23T02:24:11;14.20;99.90
26595;DHT22;14238;49.496;8.154;2023-03-23T02:27:05;14.10;99.90
26595;DHT22;14238;49.496;8.154;2023-03-23T02:29:48;14.10;99.90
26595;DHT22;14238;49.496;8.154;2023-03-23T02:35:38;14.00;99.90
26595;DHT22;14238;49.496;8.154;2023-03-23T02:38:10;13.90;99.90
26595;DHT22;14238;49.496;8.154;2023-03-23T02:40:45;13.80;99.90
26595;DHT22;14238;49.496;8.154;2023-03-23T02:43:16;13.90;99.90
26595;DHT22;14238;49.496;8.154;2023-03-23T02:45:44;13.90;99.90
26595;DHT22;14238;49.496;8.154;2023-03-23T02:48:11;14.00;99.90
26595;DHT22;14238;49.496;8.154;2023-03-23T02:50:41;13.90;99.90
26595;DHT22;14238;49.496;8.154;2023-03-23T02:53:10;13.90;99.90
26595;DHT22;14238;49.496;8.154;2023-03-23T02:55:38;13.90;99.90
26595;DHT22;14238;49.496;8.154;2023-03-23T02:58:11;13.90;99.90
26595;DHT22;14238;49.496;8.154;2023-03-23T03:00:37;13.90;99.90
26595;DHT22;14238;49.496;8.154;2023-03-23T03:03:04;13.90;99.90
26595;DHT22;14238;49.496;8.154;2023-03-23T03:05:44;13.80;99.90
26595;DHT22;14238;49.496;8.154;2023-03-23T03:08:42;13.70;99.90
26595;DHT22;14238;49.496;8.154;2023-03-23T03:11:12;13.70;99.90
26595;DHT22;14238;49.496;8.154;2023-03-23T03:13:47;13.60;99.90
26595;DHT22;14238;49.496;8.154;2023-03-23T03:21:43;13.70;99.90
26595;DHT22;14238;49.496;8.154;2023-03-23T03:24:11;13.60;99.90
26595;DHT22;14238;49.496;8.154;2023-03-23T03:26:42;13.50;99.90
26595;DHT22;14238;49.496;8.154;2023-03-23T03:29:15;13.50;99.90
26595;DHT22;14238;49.496;8.154;2023-03-23T03:31:44;13.40;99.90
26595;DHT22;14238;49.496;8.154;2023-03-23T03:34:12;13.40;99.90
26595;DHT22;14238;49.496;8.154;2023-03-23T03:36:45;13.50;99.90
26595;DHT22;14238;49.496;8.154;2023-03-23T03:39:13;13.60;99.90
26595;DHT22;14238;49.496;8.154;2023-03-23T03:41:40;13.50;99.90
26595;DHT22;14238;49.496;8.154;2023-03-23T03:44:06;13.50;99.90
26595;DHT22;14238;49.496;8.154;2023-03-23T03:46:34;13.50;99.90
26595;DHT22;14238;49.496;8.154;2023-03-23T03:49:01;13.60;99.90
26595;DHT22;14238;49.496;8.154;2023-03-23T03:51:28;13.50;99.90
26595;DHT22;14238;49.496;8.154;2023-03-23T03:53:54;13.40;99.90
26595;DHT22;14238;49.496;8.154;2023-03-23T03:56:20;13.50;99.90
26595;DHT22;14238;49.496;8.154;2023-03-23T03:58:47;13.40;99.90
26595;DHT22;14238;49.496;8.154;2023-03-23T04:01:14;13.40;99.90
26595;DHT22;14238;49.496;8.154;2023-03-23T04:03:40;13.40;99.90
26595;DHT22;14238;49.496;8.154;2023-03-23T04:06:06;13.40;99.90
26595;DHT22;14238;49.496;8.154;2023-03-23T04:08:33;13.50;99.90
26595;DHT22;14238;49.496;8.154;2023-03-23T04:10:59;13.50;99.90
26595;DHT22;14238;49.496;8.154;2023-03-23T04:13:25;13.60;99.90
26595;DHT22;14238;49.496;8.154;2023-03-23T04:15:50;13.50;99.90
26595;DHT22;14238;49.496;8.154;2023-03-23T04:18:16;13.50;99.90
26595;DHT22;14238;49.496;8.154;2023-03-23T04:20:46;13.50;99.90
26595;DHT22;14238;49.496;8.154;2023-03-23T04:23:14;13.40;99.90
26595;DHT22;14238;49.496;8.154;2023-03-23T04:25:45;13.40;99.90
26595;DHT22;14238;49.496;8.154;2023-03-23T04:28:12;13.30;99.90
26595;DHT22;14238;49.496;8.154;2023-03-23T04:30:38;13.30;99.90
26595;DHT22;14238;49.496;8.154;2023-03-23T04:33:04;13.20;99.90
26595;DHT22;14238;49.496;8.154;2023-03-23T04:35:29;13.20;99.90
26595;DHT22;14238;49.496;8.154;2023-03-23T04:37:56;13.20;99.90
26595;DHT22;14238;49.496;8.154;2023-03-23T04:40:22;13.20;99.90
26595;DHT22;14238;49.496;8.154;2023-03-23T04:42:48;13.20;99.90
26595;DHT22;14238;49.496;8.154;2023-03-23T04:45:19;13.10;99.90
26595;DHT22;14238;49.496;8.154;2023-03-23T04:47:48;13.20;99.90
26595;DHT22;14238;49.496;8.154;2023-03-23T04:50:20;13.30;99.90
26595;DHT22;14238;49.496;8.154;2023-03-23T04:52:47;13.20;99.90
26595;DHT22;14238;49.496;8.154;2023-03-23T04:55:13;13.10;99.90
26595;DHT22;14238;49.496;8.154;2023-03-23T04:57:38;13.10;99.90
26595;DHT22;14238;49.496;8.154;2023-03-23T05:00:05;12.90;99.90
26595;DHT22;14238;49.496;8.154;2023-03-23T05:02:38;12.70;99.90
26595;DHT22;14238;49.496;8.154;2023-03-23T05:05:07;12.50;99.90
26595;DHT22;14238;49.496;8.154;2023-03-23T05:07:33;12.40;99.90
26595;DHT22;14238;49.496;8.154;2023-03-23T05:09:59;12.30;99.90
26595;DHT22;14238;49.496;8.154;2023-03-23T05:12:25;12.20;99.90
26595;DHT22;14238;49.496;8.154;2023-03-23T05:14:51;12.10;99.90
26595;DHT22;14238;49.496;8.154;2023-03-23T05:17:17;12.10;99.90
26595;DHT22;14238;49.496;8.154;2023-03-23T05:19:44;12.00;99.90
26595;DHT22;14238;49.496;8.154;2023-03-23T05:22:13;12.00;99.90
26595;DHT22;14238;49.496;8.154;2023-03-23T05:24:40;12.00;99.90
26595;DHT22;14238;49.496;8.154;2023-03-23T05:27:05;12.00;99.90
26595;DHT22;14238;49.496;8.154;2023-03-23T05:29:33;11.90;99.90
26595;DHT22;14238;49.496;8.154;2023-03-23T05:32:01;11.90;99.90
26595;DHT22;14238;49.496;8.154;2023-03-23T05:34:27;11.90;99.90
26595;DHT22;14238;49.496;8.154;2023-03-23T05:36:54;11.90;99.90
26595;DHT22;14238;49.496;8.154;2023-03-23T05:39:21;11.90;99.90
26595;DHT22;14238;49.496;8.154;2023-03-23T05:41:46;11.90;99.90
26595;DHT22;14238;49.496;8.154;2023-03-23T05:44:12;11.90;99.90
26595;DHT22;14238;49.496;8.154;2023-03-23T05:46:39;11.90;99.90
26595;DHT22;14238;49.496;8.154;2023-03-23T05:49:05;11.90;99.90
26595;DHT22;14238;49.496;8.154;2023-03-23T05:51:30;12.00;99.90
26595;DHT22;14238;49.496;8.154;2023-03-23T05:53:56;12.00;99.90
26595;DHT22;14238;49.496;8.154;2023-03-23T05:56:22;12.10;99.90
26595;DHT22;14238;49.496;8.154;2023-03-23T05:58:48;12.10;99.90
26595;DHT22;14238;49.496;8.154;2023-03-23T06:01:14;12.10;99.90
26595;DHT22;14238;49.496;8.154;2023-03-23T06:03:40;12.10;99.90
26595;DHT22;14238;49.496;8.154;2023-03-23T06:06:05;12.10;99.90
26595;DHT22;14238;49.496;8.154;2023-03-23T06:08:31;12.10;99.90
26595;DHT22;14238;49.496;8.154;2023-03-23T06:10:56;12.10;99.90
26595;DHT22;14238;49.496;8.154;2023-03-23T06:13:23;12.10;99.90
26595;DHT22;14238;49.496;8.154;2023-03-23T06:15:49;12.10;99.90
26595;DHT22;14238;49.496;8.154;2023-03-23T06:18:15;12.10;99.90
26595;DHT22;14238;49.496;8.154;2023-03-23T06:20:40;12.10;99.90
26595;DHT22;14238;49.496;8.154;2023-03-23T06:23:08;12.10;99.90
26595;DHT22;14238;49.496;8.154;2023-03-23T06:25:34;12.20;99.90
26595;DHT22;14238;49.496;8.154;2023-03-23T06:28:00;12.20;99.90
26595;DHT22;14238;49.496;8.154;2023-03-23T06:30:26;12.20;99.90
26595;DHT22;14238;49.496;8.154;2023-03-23T06:32:52;12.10;99.90
26595;DHT22;14238;49.496;8.154;2023-03-23T06:35:18;12.10;99.90
26595;DHT22;14238;49.496;8.154;2023-03-23T06:37:43;12.10;99.90
26595;DHT22;14238;49.496;8.154;2023-03-23T06:40:09;12.10;99.90
26595;DHT22;14238;49.496;8.154;2023-03-23T06:42:35;12.00;99.90
26595;DHT22;14238;49.496;8.154;2023-03-23T06:45:02;12.00;99.90
26595;DHT22;14238;49.496;8.154;2023-03-23T06:47:28;12.00;99.90
26595;DHT22;14238;49.496;8.154;2023-03-23T06:49:57;11.90;99.90
26595;DHT22;14238;49.496;8.154;2023-03-23T06:52:23;12.00;99.90
26595;DHT22;14238;49.496;8.154;2023-03-23T06:54:50;12.00;99.90
26595;DHT22;14238;49.496;8.154;2023-03-23T06:57:16;11.80;99.90
26595;DHT22;14238;49.496;8.154;2023-03-23T06:59:42;11.80;99.90
26595;DHT22;14238;49.496;8.154;2023-03-23T07:02:10;11.80;99.90
26595;DHT22;14238;49.496;8.154;2023-03-23T07:04:36;11.70;99.90
26595;DHT22;14238;49.496;8.154;2023-03-23T07:07:02;11.60;99.90
26595;DHT22;14238;49.496;8.154;2023-03-23T07:09:28;11.60;99.90
26595;DHT22;14238;49.496;8.154;2023-03-23T07:11:54;11.60;99.90
26595;DHT22;14238;49.496;8.154;2023-03-23T07:14:19;11.70;99.90
26595;DHT22;14238;49.496;8.154;2023-03-23T07:16:47;11.70;99.90
26595;DHT22;14238;49.496;8.154;2023-03-23T07:19:12;11.70;99.90
26595;DHT22;14238;49.496;8.154;2023-03-23T07:21:38;11.70;99.90
26595;DHT22;14238;49.496;8.154;2023-03-23T07:24:03;11.70;99.90
26595;DHT22;14238;49.496;8.154;2023-03-23T07:26:29;11.70;99.90
26595;DHT22;14238;49.496;8.154;2023-03-23T07:28:54;11.70;99.90
26595;DHT22;14238;49.496;8.154;2023-03-23T07:31:20;11.70;99.90
26595;DHT22;14238;49.496;8.154;2023-03-23T07:33:46;11.70;99.90
26595;DHT22;14238;49.496;8.154;2023-03-23T07:36:12;11.70;99.90
26595;DHT22;14238;49.496;8.154;2023-03-23T07:38:38;11.70;99.90
26595;DHT22;14238;49.496;8.154;2023-03-23T07:41:04;11.70;99.90
26595;DHT22;14238;49.496;8.154;2023-03-23T07:43:30;11.80;99.90
26595;DHT22;14238;49.496;8.154;2023-03-23T07:45:55;11.90;99.90
26595;DHT22;14238;49.496;8.154;2023-03-23T07:48:22;11.90;99.90
26595;DHT22;14238;49.496;8.154;2023-03-23T07:50:47;11.90;99.90
26595;DHT22;14238;49.496;8.154;2023-03-23T07:53:13;12.00;99.90
26595;DHT22;14238;49.496;8.154;2023-03-23T07:55:38;12.00;99.90
26595;DHT22;14238;49.496;8.154;2023-03-23T07:58:04;11.90;99.90
26595;DHT22;14238;49.496;8.154;2023-03-23T08:00:30;12.00;99.90
26595;DHT22;14238;49.496;8.154;2023-03-23T08:02:57;12.10;99.90
26595;DHT22;14238;49.496;8.154;2023-03-23T08:05:23;12.20;99.90
26595;DHT22;14238;49.496;8.154;2023-03-23T08:07:50;12.30;99.90
26595;DHT22;14238;49.496;8.154;2023-03-23T08:10:17;12.30;99.90
26595;DHT22;14238;49.496;8.154;2023-03-23T08:12:44;12.20;99.90
26595;DHT22;14238;49.496;8.154;2023-03-23T08:15:11;12.30;99.90
26595;DHT22;14238;49.496;8.154;2023-03-23T08:17:41;12.30;99.90
26595;DHT22;14238;49.496;8.154;2023-03-23T08:20:07;12.30;99.90
26595;DHT22;14238;49.496;8.154;2023-03-23T08:22:39;12.40;99.90
26595;DHT22;14238;49.496;8.154;2023-03-23T08:25:06;12.40;99.90
26595;DHT22;14238;49.496;8.154;2023-03-23T08:27:32;12.50;99.90
26595;DHT22;14238;49.496;8.154;2023-03-23T08:29:58;12.50;99.90
26595;DHT22;14238;49.496;8.154;2023-03-23T08:32:24;12.60;99.90
26595;DHT22;14238;49.496;8.154;2023-03-23T08:34:51;12.70;99.90
26595;DHT22;14238;49.496;8.154;2023-03-23T08:37:16;12.80;99.90
26595;DHT22;14238;49.496;8.154;2023-03-23T08:39:42;12.90;99.90
26595;DHT22;14238;49.496;8.154;2023-03-23T08:42:09;12.90;99.90
26595;DHT22;14238;49.496;8.154;2023-03-23T08:44:35;12.90;99.90
26595;DHT22;14238;49.496;8.154;2023-03-23T08:47:02;12.90;99.90
26595;DHT22;14238;49.496;8.154;2023-03-23T08:49:29;13.00;99.90
26595;DHT22;14238;49.496;8.154;2023-03-23T08:51:58;13.10;99.90
26595;DHT22;14238;49.496;8.154;2023-03-23T08:54:24;13.20;99.90
26595;DHT22;14238;49.496;8.154;2023-03-23T08:56:49;13.10;99.90
26595;DHT22;14238;49.496;8.154;2023-03-23T08:59:15;13.00;99.90
26595;DHT22;14238;49.496;8.154;2023-03-23T09:01:41;13.00;99.90
26595;DHT22;14238;49.496;8.154;2023-03-23T09:04:07;13.10;99.90
26595;DHT22;14238;49.496;8.154;2023-03-23T09:06:35;13.20;99.90
26595;DHT22;14238;49.496;8.154;2023-03-23T09:09:01;13.10;99.90
26595;DHT22;14238;49.496;8.154;2023-03-23T09:11:35;13.10;99.90
26595;DHT22;14238;49.496;8.154;2023-03-23T09:14:02;13.10;99.90
26595;DHT22;14238;49.496;8.154;2023-03-23T09:16:28;13.10;99.90
26595;DHT22;14238;49.496;8.154;2023-03-23T09:18:54;12.80;99.90
26595;DHT22;14238;49.496;8.154;2023-03-23T09:21:20;12.70;99.90
26595;DHT22;14238;49.496;8.154;2023-03-23T09:23:47;12.70;99.90
26595;DHT22;14238;49.496;8.154;2023-03-23T09:26:13;12.70;99.90
26595;DHT22;14238;49.496;8.154;2023-03-23T09:28:39;12.50;99.90
26595;DHT22;14238;49.496;8.154;2023-03-23T09:31:05;12.50;99.90
26595;DHT22;14238;49.496;8.154;2023-03-23T09:33:31;12.50;99.90
26595;DHT22;14238;49.496;8.154;2023-03-23T09:36:00;12.50;99.90
26595;DHT22;14238;49.496;8.154;2023-03-23T09:38:27;12.40;99.90
26595;DHT22;14238;49.496;8.154;2023-03-23T09:47:04;12.40;99.90
26595;DHT22;14238;49.496;8.154;2023-03-23T09:49:38;12.50;99.90
26595;DHT22;14238;49.496;8.154;2023-03-23T09:52:16;12.40;99.90
26595;DHT22;14238;49.496;8.154;2023-03-23T09:54:51;12.50;99.90
26595;DHT22;14238;49.496;8.154;2023-03-23T09:57:22;12.90;99.90
26595;DHT22;14238;49.496;8.154;2023-03-23T10:00:09;13.40;99.90
26595;DHT22;14238;49.496;8.154;2023-03-23T10:02:55;13.70;99.90
26595;DHT22;14238;49.496;8.154;2023-03-23T10:05:41;13.80;99.90
26595;DHT22;14238;49.496;8.154;2023-03-23T10:08:19;14.60;99.90
26595;DHT22;14238;49.496;8.154;2023-03-23T10:10:59;14.80;99.90
26595;DHT22;14238;49.496;8.154;2023-03-23T10:16:25;15.30;99.90
26595;DHT22;14238;49.496;8.154;2023-03-23T10:19:08;15.40;99.90
26595;DHT22;14238;49.496;8.154;2023-03-23T10:21:38;15.10;99.90
26595;DHT22;14238;49.496;8.154;2023-03-23T10:24:10;14.80;99.90
26595;DHT22;14238;49.496;8.154;2023-03-23T10:26:59;14.60;99.90
26595;DHT22;14238;49.496;8.154;2023-03-23T10:29:32;14.10;99.90
26595;DHT22;14238;49.496;8.154;2023-03-23T10:32:17;13.60;99.90
26595;DHT22;14238;49.496;8.154;2023-03-23T10:35:00;13.60;99.90
26595;DHT22;14238;49.496;8.154;2023-03-23T10:37:31;13.60;99.90
26595;DHT22;14238;49.496;8.154;2023-03-23T10:40:00;13.80;99.90
26595;DHT22;14238;49.496;8.154;2023-03-23T10:42:31;13.70;99.90
26595;DHT22;14238;49.496;8.154;2023-03-23T10:45:00;13.50;99.90
26595;DHT22;14238;49.496;8.154;2023-03-23T10:47:26;13.40;99.90
26595;DHT22;14238;49.496;8.154;2023-03-23T10:50:04;13.40;99.90
26595;DHT22;14238;49.496;8.154;2023-03-23T10:52:42;13.60;99.90
26595;DHT22;14238;49.496;8.154;2023-03-23T10:55:16;13.60;99.90
26595;DHT22;14238;49.496;8.154;2023-03-23T10:57:45;13.40;99.90
26595;DHT22;14238;49.496;8.154;2023-03-23T11:00:17;13.20;99.90
26595;DHT22;14238;49.496;8.154;2023-03-23T11:02:59;13.00;99.90
26595;DHT22;14238;49.496;8.154;2023-03-23T11:05:49;13.10;99.90
26595;DHT22;14238;49.496;8.154;2023-03-23T11:08:15;12.90;99.90
26595;DHT22;14238;49.496;8.154;2023-03-23T11:10:49;12.80;99.90
26595;DHT22;14238;49.496;8.154;2023-03-23T11:13:17;13.00;99.90
26595;DHT22;14238;49.496;8.154;2023-03-23T11:15:44;13.00;99.90
26595;DHT22;14238;49.496;8.154;2023-03-23T11:18:23;13.40;99.90
26595;DHT22;14238;49.496;8.154;2023-03-23T11:20:54;13.90;99.90
26595;DHT22;14238;49.496;8.154;2023-03-23T11:23:30;14.50;99.90
26595;DHT22;14238;49.496;8.154;2023-03-23T11:26:14;15.00;99.90
26595;DHT22;14238;49.496;8.154;2023-03-23T11:29:10;15.10;99.90
26595;DHT22;14238;49.496;8.154;2023-03-23T11:31:40;15.30;99.90
26595;DHT22;14238;49.496;8.154;2023-03-23T11:34:17;15.00;99.90
26595;DHT22;14238;49.496;8.154;2023-03-23T11:36:48;15.10;99.90
26595;DHT22;14238;49.496;8.154;2023-03-23T11:42:19;14.70;99.90
26595;DHT22;14238;49.496;8.154;2023-03-23T11:44:45;14.90;99.90
26595;DHT22;14238;49.496;8.154;2023-03-23T11:47:36;14.80;99.90
26595;DHT22;14238;49.496;8.154;2023-03-23T11:50:24;14.60;99.90
26595;DHT22;14238;49.496;8.154;2023-03-23T11:53:15;14.70;99.90
26595;DHT22;14238;49.496;8.154;2023-03-23T11:58:15;14.80;99.90
26595;DHT22;14238;49.496;8.154;2023-03-23T12:00:49;14.50;99.90
26595;DHT22;14238;49.496;8.154;2023-03-23T12:03:17;14.80;99.90
26595;DHT22;14238;49.496;8.154;2023-03-23T12:06:10;14.70;99.90
26595;DHT22;14238;49.496;8.154;2023-03-23T12:23:14;14.50;99.90
26595;DHT22;14238;49.496;8.154;2023-03-23T12:26:10;14.60;99.90
26595;DHT22;14238;49.496;8.154;2023-03-23T12:29:01;14.80;99.90
26595;DHT22;14238;49.496;8.154;2023-03-23T12:31:49;14.90;99.90
26595;DHT22;14238;49.496;8.154;2023-03-23T12:40:23;14.40;99.90
26595;DHT22;14238;49.496;8.154;2023-03-23T12:43:31;14.50;99.90
26595;DHT22;14238;49.496;8.154;2023-03-23T12:46:33;14.60;99.90
26595;DHT22;14238;49.496;8.154;2023-03-23T12:48:56;15.20;99.90
26595;DHT22;14238;49.496;8.154;2023-03-23T12:51:30;15.20;99.90
26595;DHT22;14238;49.496;8.154;2023-03-23T12:54:11;15.10;99.90
26595;DHT22;14238;49.496;8.154;2023-03-23T12:56:54;15.50;99.90
26595;DHT22;14238;49.496;8.154;2023-03-23T12:59:32;15.20;99.90
26595;DHT22;14238;49.496;8.154;2023-03-23T13:02:14;14.80;99.90
26595;DHT22;14238;49.496;8.154;2023-03-23T13:04:44;14.50;99.90
26595;DHT22;14238;49.496;8.154;2023-03-23T13:07:16;14.40;99.90
26595;DHT22;14238;49.496;8.154;2023-03-23T13:10:04;14.40;99.90
26595;DHT22;14238;49.496;8.154;2023-03-23T13:12:32;14.10;99.90
26595;DHT22;14238;49.496;8.154;2023-03-23T13:17:48;14.10;99.90
26595;DHT22;14238;49.496;8.154;2023-03-23T13:28:31;13.90;99.90
26595;DHT22;14238;49.496;8.154;2023-03-23T13:30:59;13.90;99.90
26595;DHT22;14238;49.496;8.154;2023-03-23T13:33:28;13.80;99.90
26595;DHT22;14238;49.496;8.154;2023-03-23T13:35:54;13.70;99.90
26595;DHT22;14238;49.496;8.154;2023-03-23T13:38:26;13.70;99.90
26595;DHT22;14238;49.496;8.154;2023-03-23T13:40:53;13.70;99.90
26595;DHT22;14238;49.496;8.154;2023-03-23T13:43:29;13.70;99.90
26595;DHT22;14238;49.496;8.154;2023-03-23T13:46:08;13.80;99.90
26595;DHT22;14238;49.496;8.154;2023-03-23T13:48:47;13.70;99.90
26595;DHT22;14238;49.496;8.154;2023-03-23T13:57:02;13.70;99.90
26595;DHT22;14238;49.496;8.154;2023-03-23T13:59:34;13.60;99.90
26595;DHT22;14238;49.496;8.154;2023-03-23T14:02:33;13.60;99.90
26595;DHT22;14238;49.496;8.154;2023-03-23T14:05:33;13.60;99.90
26595;DHT22;14238;49.496;8.154;2023-03-23T14:13:06;13.80;99.90
26595;DHT22;14238;49.496;8.154;2023-03-23T14:16:02;13.90;99.90
26595;DHT22;14238;49.496;8.154;2023-03-23T14:18:54;14.00;99.90
26595;DHT22;14238;49.496;8.154;2023-03-23T14:21:37;14.10;99.90
26595;DHT22;14238;49.496;8.154;2023-03-23T14:24:16;14.10;99.90
26595;DHT22;14238;49.496;8.154;2023-03-23T14:26:43;14.10;99.90
26595;DHT22;14238;49.496;8.154;2023-03-23T14:29:12;14.00;99.90
26595;DHT22;14238;49.496;8.154;2023-03-23T14:31:38;14.10;99.90
26595;DHT22;14238;49.496;8.154;2023-03-23T14:34:19;14.10;99.90
26595;DHT22;14238;49.496;8.154;2023-03-23T14:36:46;14.10;99.90
26595;DHT22;14238;49.496;8.154;2023-03-23T14:39:14;14.20;99.90
26595;DHT22;14238;49.496;8.154;2023-03-23T14:41:42;14.20;99.90
26595;DHT22;14238;49.496;8.154;2023-03-23T14:44:14;14.10;99.90
26595;DHT22;14238;49.496;8.154;2023-03-23T14:46:42;14.10;99.90
26595;DHT22;14238;49.496;8.154;2023-03-23T14:49:14;14.10;99.90
26595;DHT22;14238;49.496;8.154;2023-03-23T14:51:52;14.10;99.90
26595;DHT22;14238;49.496;8.154;2023-03-23T14:54:27;14.00;99.90
26595;DHT22;14238;49.496;8.154;2023-03-23T14:56:54;14.00;99.90
26595;DHT22;14238;49.496;8.154;2023-03-23T14:59:20;13.90;99.90
26595;DHT22;14238;49.496;8.154;2023-03-23T15:01:47;13.80;99.90
26595;DHT22;14238;49.496;8.154;2023-03-23T15:04:20;13.80;99.90
26595;DHT22;14238;49.496;8.154;2023-03-23T15:06:53;13.70;99.90
26595;DHT22;14238;49.496;8.154;2023-03-23T15:09:22;13.60;99.90
26595;DHT22;14238;49.496;8.154;2023-03-23T15:11:56;13.60;99.90
26595;DHT22;14238;49.496;8.154;2023-03-23T15:14:30;13.70;99.90
26595;DHT22;14238;49.496;8.154;2023-03-23T15:16:58;13.70;99.90
26595;DHT22;14238;49.496;8.154;2023-03-23T15:19:40;13.70;99.90
26595;DHT22;14238;49.496;8.154;2023-03-23T15:22:18;13.70;99.90
26595;DHT22;14238;49.496;8.154;2023-03-23T15:24:45;13.80;99.90
26595;DHT22;14238;49.496;8.154;2023-03-23T15:27:23;13.90;99.90
26595;DHT22;14238;49.496;8.154;2023-03-23T15:29:55;13.80;99.90
26595;DHT22;14238;49.496;8.154;2023-03-23T15:34:52;13.70;99.90
26595;DHT22;14238;49.496;8.154;2023-03-23T15:37:26;13.80;99.90
26595;DHT22;14238;49.496;8.154;2023-03-23T15:39:53;13.80;99.90
26595;DHT22;14238;49.496;8.154;2023-03-23T15:42:26;13.80;99.90
26595;DHT22;14238;49.496;8.154;2023-03-23T15:50:13;13.80;99.90
26595;DHT22;14238;49.496;8.154;2023-03-23T15:52:39;13.70;99.90
26595;DHT22;14238;49.496;8.154;2023-03-23T15:55:27;13.70;99.90
26595;DHT22;14238;49.496;8.154;2023-03-23T15:57:54;13.70;99.90
26595;DHT22;14238;49.496;8.154;2023-03-23T16:00:22;13.60;99.90
26595;DHT22;14238;49.496;8.154;2023-03-23T16:02:53;13.60;99.90
26595;DHT22;14238;49.496;8.154;2023-03-23T16:05:20;13.60;99.90
26595;DHT22;14238;49.496;8.154;2023-03-23T16:07:45;13.60;99.90
26595;DHT22;14238;49.496;8.154;2023-03-23T16:10:19;13.60;99.90
26595;DHT22;14238;49.496;8.154;2023-03-23T16:12:45;13.70;99.90
26595;DHT22;14238;49.496;8.154;2023-03-23T16:15:12;13.70;99.90
26595;DHT22;14238;49.496;8.154;2023-03-23T16:17:37;13.70;99.90
26595;DHT22;14238;49.496;8.154;2023-03-23T16:20:12;13.70;99.90
26595;DHT22;14238;49.496;8.154;2023-03-23T16:22:38;13.70;99.90
26595;DHT22;14238;49.496;8.154;2023-03-23T16:25:04;13.70;99.90
26595;DHT22;14238;49.496;8.154;2023-03-23T16:27:29;13.70;99.90
26595;DHT22;14238;49.496;8.154;2023-03-23T16:29:55;13.70;99.90
26595;DHT22;14238;49.496;8.154;2023-03-23T16:32:21;13.70;99.90
26595;DHT22;14238;49.496;8.154;2023-03-23T16:34:47;13.70;99.90
26595;DHT22;14238;49.496;8.154;2023-03-23T16:37:13;13.70;99.90
26595;DHT22;14238;49.496;8.154;2023-03-23T16:39:38;13.60;99.90
26595;DHT22;14238;49.496;8.154;2023-03-23T16:42:04;13.60;99.90
26595;DHT22;14238;49.496;8.154;2023-03-23T16:44:29;13.60;99.90
26595;DHT22;14238;49.496;8.154;2023-03-23T16:46:55;13.60;99.90
26595;DHT22;14238;49.496;8.154;2023-03-23T16:49:20;13.60;99.90
26595;DHT22;14238;49.496;8.154;2023-03-23T16:51:46;13.60;99.90
26595;DHT22;14238;49.496;8.154;2023-03-23T16:54:12;13.60;99.90
26595;DHT22;14238;49.496;8.154;2023-03-23T16:56:38;13.50;99.90
26595;DHT22;14238;49.496;8.154;2023-03-23T16:59:03;13.60;99.90
26595;DHT22;14238;49.496;8.154;2023-03-23T17:01:29;13.60;99.90
26595;DHT22;14238;49.496;8.154;2023-03-23T17:03:55;13.60;99.90
26595;DHT22;14238;49.496;8.154;2023-03-23T17:06:20;13.60;99.90